createdAt,value
2017-05-07T00:01:45.156Z,1.10
2017-05-07T00:04:12.513Z,1.30
2017-05-07T00:06:40.712Z,1.34
2017-05-07T00:09:08.840Z,1.30
2017-05-07T00:11:36.117Z,1.20
2017-05-07T00:14:03.570Z,2.04
2017-05-07T00:19:06.344Z,1.98
2017-05-07T00:21:33.652Z,1.58
2017-05-07T00:24:00.964Z,7.00
2017-05-07T00:26:28.251Z,3.32
2017-05-07T00:28:55.621Z,3.60
2017-05-07T00:31:22.883Z,2.02
2017-05-07T00:33:50.206Z,1.74
2017-05-07T00:36:17.482Z,1.54
2017-05-07T00:38:44.748Z,1.80
2017-05-07T00:41:12.077Z,1.30
2017-05-07T00:43:39.368Z,1.30
2017-05-07T00:46:06.934Z,1.38
2017-05-07T00:48:34.237Z,1.80
2017-05-07T00:51:01.543Z,1.72
2017-05-07T00:53:28.966Z,2.24
2017-05-07T00:55:56.336Z,1.50
2017-05-07T00:58:23.646Z,1.36
2017-05-07T01:00:50.967Z,1.48
2017-05-07T01:03:18.357Z,1.48
2017-05-07T01:05:45.968Z,1.50
2017-05-07T01:08:13.296Z,1.86
2017-05-07T01:10:40.632Z,1.80
2017-05-07T01:13:07.888Z,1.70
2017-05-07T01:15:35.128Z,1.54
2017-05-07T01:18:02.492Z,1.40
2017-05-07T01:20:29.788Z,1.94
2017-05-07T01:22:57.206Z,2.72
2017-05-07T01:25:24.524Z,1.70
2017-05-07T01:27:51.795Z,1.94
2017-05-07T01:30:19.093Z,2.12
2017-05-07T01:32:46.425Z,2.18
2017-05-07T01:35:13.688Z,2.46
2017-05-07T01:37:41.247Z,1.98
2017-05-07T01:40:08.665Z,2.46
2017-05-07T01:42:36.087Z,3.84
2017-05-07T01:45:03.352Z,2.08
2017-05-07T01:47:31.004Z,2.98
2017-05-07T01:49:58.413Z,3.26
2017-05-07T01:52:25.712Z,3.82
2017-05-07T01:54:53.066Z,3.32
2017-05-07T01:57:20.392Z,3.40
2017-05-07T01:59:47.687Z,5.04
2017-05-07T02:02:14.948Z,3.48
2017-05-07T02:04:42.237Z,4.44
2017-05-07T02:07:09.892Z,4.12
2017-05-07T02:09:37.171Z,3.06
2017-05-07T02:12:04.600Z,4.10
2017-05-07T02:14:31.917Z,3.80
2017-05-07T02:16:59.207Z,3.90
2017-05-07T02:19:26.535Z,4.44
2017-05-07T02:21:53.068Z,5.34
2017-05-07T02:24:20.336Z,4.88
2017-05-07T02:26:47.636Z,5.54
2017-05-07T02:29:14.943Z,5.50
2017-05-07T02:31:42.246Z,5.82
2017-05-07T02:34:09.491Z,5.50
2017-05-07T02:36:36.768Z,5.66
2017-05-07T02:39:04.044Z,5.66
2017-05-07T02:41:31.257Z,6.54
2017-05-07T02:43:58.489Z,6.98
2017-05-07T02:46:25.895Z,6.92
2017-05-07T02:48:53.617Z,8.32
2017-05-07T02:51:20.899Z,7.74
2017-05-07T02:53:49.018Z,8.16
2017-05-07T02:56:16.408Z,9.88
2017-05-07T02:58:43.671Z,9.12
2017-05-07T03:01:10.966Z,8.82
2017-05-07T03:03:38.237Z,8.54
2017-05-07T03:06:05.498Z,10.52
2017-05-07T03:08:32.765Z,8.28
2017-05-07T03:11:00.037Z,7.98
2017-05-07T03:13:27.377Z,7.52
2017-05-07T03:15:54.867Z,8.36
2017-05-07T03:18:22.163Z,6.76
2017-05-07T03:20:50.161Z,8.12
2017-05-07T03:23:17.432Z,6.70
2017-05-07T03:25:44.701Z,6.10
2017-05-07T03:28:12.086Z,5.96
2017-05-07T03:30:39.381Z,6.08
2017-05-07T03:33:07.411Z,6.02
2017-05-07T03:35:34.702Z,6.46
2017-05-07T03:38:02.854Z,5.24
2017-05-07T03:40:31.170Z,4.04
2017-05-07T03:42:59.221Z,4.46
2017-05-07T03:45:26.549Z,4.24
2017-05-07T03:47:53.877Z,4.58
2017-05-07T03:50:21.428Z,4.44
2017-05-07T03:52:49.446Z,3.46
2017-05-07T03:55:16.749Z,3.58
2017-05-07T03:57:44.021Z,4.26
2017-05-07T04:00:12.050Z,4.18
2017-05-07T04:02:39.299Z,4.50
2017-05-07T04:05:06.735Z,5.12
2017-05-07T04:07:33.995Z,5.28
2017-05-07T04:10:01.292Z,4.08
2017-05-07T04:12:28.595Z,4.80
2017-05-07T04:15:03.674Z,4.54
2017-05-07T04:17:31.009Z,4.36
2017-05-07T04:19:58.325Z,5.40
2017-05-07T04:22:25.756Z,6.08
2017-05-07T04:24:53.024Z,5.92
2017-05-07T04:27:20.315Z,4.66
2017-05-07T04:29:48.389Z,4.90
2017-05-07T04:32:15.845Z,5.54
2017-05-07T04:34:43.136Z,6.26
2017-05-07T04:37:10.596Z,5.74
2017-05-07T04:39:38.063Z,5.72
2017-05-07T04:42:05.334Z,4.62
2017-05-07T04:44:32.612Z,5.50
2017-05-07T04:46:59.865Z,5.18
2017-05-07T04:49:27.142Z,4.94
2017-05-07T04:51:54.492Z,4.72
2017-05-07T04:54:21.780Z,3.76
2017-05-07T04:56:49.202Z,3.96
2017-05-07T04:59:16.446Z,3.48
2017-05-07T05:01:43.696Z,4.08
2017-05-07T05:04:11.013Z,4.94
2017-05-07T05:06:38.398Z,3.18
2017-05-07T05:09:06.576Z,3.72
2017-05-07T05:11:34.568Z,2.80
2017-05-07T05:14:02.449Z,3.12
2017-05-07T05:16:29.722Z,2.26
2017-05-07T05:19:02.691Z,2.30
2017-05-07T05:21:45.862Z,2.32
2017-05-07T05:24:28.060Z,2.38
2017-05-07T05:27:10.190Z,1.74
2017-05-07T05:32:40.160Z,1.18
2017-05-07T05:35:07.469Z,1.00
2017-05-07T05:37:35.528Z,1.20
2017-05-07T05:40:02.993Z,0.78
2017-05-07T05:42:30.455Z,0.88
2017-05-07T05:44:58.451Z,0.60
2017-05-07T05:47:25.722Z,0.70
2017-05-07T05:49:52.968Z,0.86
2017-05-07T05:52:20.217Z,0.50
2017-05-07T05:54:48.407Z,0.64
2017-05-07T05:57:15.715Z,1.08
2017-05-07T05:59:43.010Z,1.06
2017-05-07T06:02:11.020Z,1.44
2017-05-07T06:04:38.248Z,1.10
2017-05-07T06:07:06.301Z,1.16
2017-05-07T06:09:33.670Z,0.92
2017-05-07T06:12:01.812Z,0.70
2017-05-07T06:14:29.113Z,2.62
2017-05-07T06:16:57.183Z,3.04
2017-05-07T06:19:25.216Z,0.96
2017-05-07T06:21:52.482Z,1.04
2017-05-07T06:24:19.733Z,0.80
2017-05-07T06:26:46.999Z,1.64
2017-05-07T06:29:14.316Z,2.74
2017-05-07T06:31:41.621Z,0.86
2017-05-07T06:34:08.912Z,2.18
2017-05-07T06:36:36.926Z,2.78
2017-05-07T06:39:04.259Z,1.20
2017-05-07T06:41:32.330Z,0.70
2017-05-07T06:44:00.438Z,1.30
2017-05-07T06:49:01.612Z,1.62
2017-05-07T06:51:28.875Z,1.52
2017-05-07T06:53:56.163Z,1.12
2017-05-07T06:56:23.403Z,1.34
2017-05-07T06:58:50.688Z,1.14
2017-05-07T07:01:17.991Z,2.28
2017-05-07T07:03:45.272Z,4.14
2017-05-07T07:06:12.537Z,2.96
2017-05-07T07:08:39.777Z,1.50
2017-05-07T07:11:07.027Z,2.70
2017-05-07T07:13:34.317Z,5.06
2017-05-07T07:16:01.615Z,1.10
2017-05-07T07:18:29.637Z,1.70
2017-05-07T07:20:56.908Z,2.24
2017-05-07T07:23:24.187Z,3.44
2017-05-07T07:25:51.439Z,1.12
2017-05-07T07:28:18.883Z,6.46
2017-05-07T07:30:46.140Z,3.18
2017-05-07T07:33:13.413Z,3.04
2017-05-07T07:35:40.668Z,3.30
2017-05-07T07:38:08.086Z,9.92
2017-05-07T07:40:35.322Z,8.06
2017-05-07T07:43:03.395Z,1.36
2017-05-07T07:45:31.425Z,2.64
2017-05-07T07:47:58.891Z,1.12
2017-05-07T07:50:26.310Z,1.38
2017-05-07T07:52:53.580Z,1.90
2017-05-07T07:55:27.877Z,1.00
2017-05-07T07:57:55.169Z,1.16
2017-05-07T08:00:22.531Z,1.12
2017-05-07T08:02:49.820Z,1.08
2017-05-07T08:05:17.075Z,1.24
2017-05-07T08:07:44.528Z,1.00
2017-05-07T08:10:18.903Z,0.98
2017-05-07T08:12:46.168Z,1.38
2017-05-07T08:15:13.425Z,1.30
2017-05-07T08:17:40.815Z,1.22
2017-05-07T08:20:08.131Z,4.18
2017-05-07T08:22:35.412Z,3.04
2017-05-07T08:25:02.788Z,1.68
2017-05-07T08:27:30.100Z,1.14
2017-05-07T09:21:46.071Z,0.60
2017-05-07T09:26:47.259Z,0.90
2017-05-07T09:29:14.632Z,1.36
2017-05-07T09:31:41.929Z,1.52
2017-05-07T09:34:09.958Z,0.80
2017-05-07T09:36:37.288Z,0.90
2017-05-07T09:39:04.639Z,1.86
2017-05-07T09:41:31.970Z,1.48
2017-05-07T09:43:59.239Z,1.24
2017-05-07T09:46:27.339Z,1.38
2017-05-07T09:48:54.732Z,1.80
2017-05-07T09:51:21.983Z,2.48
2017-05-07T09:53:49.333Z,1.30
2017-05-07T09:56:16.680Z,1.24
2017-05-07T09:58:44.018Z,1.16
2017-05-07T10:01:12.098Z,1.58
2017-05-07T10:03:40.118Z,1.70
2017-05-07T10:06:07.380Z,1.32
2017-05-07T10:08:34.950Z,1.64
2017-05-07T10:11:01.993Z,1.26
2017-05-07T10:13:29.285Z,1.92
2017-05-07T10:15:56.663Z,1.68
2017-05-07T10:18:24.724Z,1.58
2017-05-07T10:20:52.077Z,3.68
2017-05-07T10:23:19.385Z,2.18
2017-05-07T10:25:46.697Z,1.82
2017-05-07T10:28:14.061Z,1.16
2017-05-07T10:30:41.343Z,1.74
2017-05-07T10:33:08.614Z,2.28
2017-05-07T10:35:35.903Z,1.70
2017-05-07T10:38:03.173Z,3.38
2017-05-07T10:40:30.437Z,6.22
2017-05-07T10:42:57.688Z,2.14
2017-05-07T10:45:24.962Z,3.02
2017-05-07T10:47:52.269Z,4.24
2017-05-07T10:50:19.542Z,3.38
2017-05-07T10:52:46.875Z,4.20
2017-05-07T10:55:14.153Z,4.38
2017-05-07T10:57:41.417Z,1.82
2017-05-07T11:00:08.723Z,2.36
2017-05-07T11:02:36.028Z,2.30
2017-05-07T11:05:03.440Z,2.20
2017-05-07T11:07:30.692Z,3.02
2017-05-07T11:09:58.024Z,1.46
2017-05-07T11:12:25.317Z,2.18
2017-05-07T11:14:52.636Z,0.86
2017-05-07T11:17:19.902Z,1.30
2017-05-07T11:19:47.223Z,1.92
2017-05-07T11:22:14.549Z,3.10
2017-05-07T11:24:41.961Z,1.40
2017-05-07T11:27:09.292Z,2.62
2017-05-07T11:29:37.356Z,2.22
2017-05-07T11:32:05.372Z,1.32
2017-05-07T11:34:32.695Z,1.92
2017-05-07T11:37:00.796Z,1.38
2017-05-07T11:39:28.119Z,1.56
2017-05-07T11:41:55.373Z,1.44
2017-05-07T11:44:22.684Z,2.08
2017-05-07T11:46:49.959Z,2.12
2017-05-07T11:49:17.300Z,2.48
2017-05-07T11:51:44.663Z,1.78
2017-05-07T11:54:11.958Z,3.18
2017-05-07T11:56:39.253Z,2.90
2017-05-07T11:59:07.284Z,1.86
2017-05-07T12:01:34.633Z,3.30
2017-05-07T12:04:01.937Z,2.94
2017-05-07T12:06:29.949Z,2.86
2017-05-07T12:08:57.208Z,2.42
2017-05-07T12:11:24.547Z,1.30
2017-05-07T12:13:51.878Z,1.64
2017-05-07T12:16:19.217Z,1.22
2017-05-07T12:18:46.588Z,1.56
2017-05-07T12:21:13.944Z,1.46
2017-05-07T12:23:41.374Z,2.02
2017-05-07T12:26:08.706Z,1.30
2017-05-07T12:28:36.081Z,1.14
2017-05-07T12:31:03.457Z,1.44
2017-05-07T12:33:30.796Z,1.70
2017-05-07T12:35:58.054Z,1.48
2017-05-07T12:38:25.340Z,1.52
2017-05-07T12:40:52.630Z,2.40
2017-05-07T12:43:19.989Z,1.48
2017-05-07T12:45:47.313Z,3.18
2017-05-07T12:48:14.648Z,2.38
2017-05-07T12:50:42.009Z,2.32
2017-05-07T12:53:09.367Z,2.04
2017-05-07T12:55:36.627Z,1.00
2017-05-07T12:58:03.960Z,1.78
2017-05-07T13:00:32.033Z,1.80
2017-05-07T13:03:00.157Z,1.00
2017-05-07T13:05:27.641Z,1.28
2017-05-07T13:07:54.905Z,1.20
2017-05-07T13:10:22.213Z,1.32
2017-05-07T13:12:49.594Z,1.46
2017-05-07T13:15:16.866Z,3.36
2017-05-07T13:17:44.158Z,1.82
2017-05-07T13:20:11.439Z,2.36
2017-05-07T13:22:39.629Z,2.86
2017-05-07T13:25:06.958Z,4.80
2017-05-07T13:27:34.446Z,1.66
2017-05-07T13:30:01.747Z,4.60
2017-05-07T13:32:29.130Z,3.38
2017-05-07T13:34:56.524Z,6.26
2017-05-07T13:37:23.922Z,2.48
2017-05-07T13:39:51.404Z,1.92
2017-05-07T13:42:18.701Z,7.16
2017-05-07T13:44:46.812Z,12.58
2017-05-07T13:47:14.287Z,3.88
2017-05-07T13:49:41.676Z,14.34
2017-05-07T13:52:08.961Z,3.64
2017-05-07T13:54:37.075Z,1.48
2017-05-07T13:57:04.355Z,1.48
2017-05-07T13:59:31.658Z,1.28
2017-05-07T14:01:59.768Z,4.32
2017-05-07T14:04:27.091Z,2.84
2017-05-07T14:06:55.252Z,2.22
2017-05-07T14:09:22.613Z,2.68
2017-05-07T14:11:49.924Z,4.04
2017-05-07T14:14:17.306Z,2.18
2017-05-07T14:16:44.637Z,1.68
2017-05-07T14:19:11.921Z,2.54
2017-05-07T14:21:39.267Z,2.80
2017-05-07T14:24:06.584Z,3.10
2017-05-07T14:26:34.780Z,6.98
2017-05-07T14:29:02.077Z,2.12
2017-05-07T14:31:29.505Z,3.12
2017-05-07T14:33:56.920Z,3.12
2017-05-07T14:36:24.468Z,2.14
2017-05-07T14:38:51.880Z,1.92
2017-05-07T14:41:19.156Z,2.16
2017-05-07T14:43:46.589Z,1.60
2017-05-07T14:46:14.676Z,1.40
2017-05-07T14:48:41.989Z,1.62
2017-05-07T14:51:09.289Z,2.22
2017-05-07T14:53:37.393Z,2.88
2017-05-07T14:56:04.688Z,1.52
2017-05-07T14:58:32.097Z,1.74
2017-05-07T15:00:59.539Z,1.50
2017-05-07T15:05:43.780Z,1.78
2017-05-07T15:08:11.068Z,1.68
2017-05-07T15:10:38.447Z,2.52
2017-05-07T15:13:05.953Z,2.38
2017-05-07T15:15:33.257Z,1.92
2017-05-07T15:18:00.580Z,2.20
2017-05-07T15:20:27.969Z,2.02
2017-05-07T15:22:55.438Z,2.80
2017-05-07T15:25:22.736Z,2.28
2017-05-07T15:27:50.024Z,2.10
2017-05-07T15:30:17.298Z,2.16
2017-05-07T15:32:44.706Z,2.80
2017-05-07T15:35:12.001Z,4.22
2017-05-07T15:37:39.330Z,6.68
2017-05-07T15:40:06.719Z,7.02
2017-05-07T15:42:34.037Z,4.44
2017-05-07T15:45:01.442Z,4.90
2017-05-07T15:47:28.742Z,4.82
2017-05-07T15:49:56.061Z,4.20
2017-05-07T15:52:23.410Z,4.88
2017-05-07T15:54:50.768Z,4.24
2017-05-07T15:57:18.211Z,5.02
2017-05-07T15:59:45.624Z,4.62
2017-05-07T16:02:13.068Z,5.84
2017-05-07T16:04:40.407Z,7.22
2017-05-07T16:07:07.873Z,7.40
2017-05-07T16:09:35.216Z,4.88
2017-05-07T16:12:02.632Z,6.20
2017-05-07T16:14:30.008Z,15.90
2017-05-07T16:23:08.029Z,6.88
2017-05-07T16:25:56.958Z,6.22
2017-05-07T16:28:25.807Z,10.56
2017-05-07T16:30:53.125Z,10.86
2017-05-07T16:33:21.354Z,13.88
2017-05-07T16:35:48.672Z,11.18
2017-05-07T16:38:15.989Z,10.34
2017-05-07T16:40:43.322Z,9.66
2017-05-07T16:45:42.091Z,10.10
2017-05-07T16:48:10.187Z,7.60
2017-05-07T16:50:37.475Z,10.46
2017-05-07T16:53:04.758Z,8.04
2017-05-07T16:55:32.029Z,10.74
2017-05-07T16:57:59.346Z,10.00
2017-05-07T17:00:26.716Z,10.00
2017-05-07T17:03:13.962Z,10.80
2017-05-07T17:05:41.225Z,9.64
2017-05-07T17:08:09.277Z,8.48
2017-05-07T17:10:36.679Z,9.48
2017-05-07T17:13:04.898Z,8.16
2017-05-07T17:15:32.231Z,10.90
2017-05-07T17:17:59.543Z,9.18
2017-05-07T17:20:26.836Z,9.76
2017-05-07T17:22:55.064Z,9.42
2017-05-07T17:27:49.596Z,10.00
2017-05-07T17:30:17.043Z,8.58
2017-05-07T17:32:44.483Z,7.54
2017-05-07T17:35:11.855Z,7.22
2017-05-07T17:37:39.151Z,6.40
2017-05-07T17:40:06.518Z,7.70
2017-05-07T17:42:33.818Z,8.36
2017-05-07T17:45:01.136Z,8.94
2017-05-07T17:47:28.489Z,9.04
2017-05-07T17:49:55.793Z,6.72
2017-05-07T17:52:23.132Z,8.00
2017-05-07T17:54:50.494Z,6.88
2017-05-07T17:57:18.018Z,8.84
2017-05-07T17:59:45.349Z,7.34
2017-05-07T18:02:12.658Z,9.68
2017-05-07T18:04:39.937Z,10.46
2017-05-07T18:07:07.216Z,9.54
2017-05-07T18:09:34.565Z,9.88
2017-05-07T18:12:01.885Z,12.68
2017-05-07T18:14:29.186Z,8.66
2017-05-07T18:16:56.488Z,9.30
2017-05-07T18:19:23.783Z,7.20
2017-05-07T18:21:51.805Z,10.70
2017-05-07T18:24:19.152Z,10.34
2017-05-07T18:26:46.603Z,8.90
2017-05-07T18:29:14.018Z,11.68
2017-05-07T18:31:41.361Z,10.38
2017-05-07T18:34:08.698Z,12.92
2017-05-07T18:36:36.070Z,14.28
2017-05-07T18:39:03.328Z,13.74
2017-05-07T18:41:30.627Z,12.26
2017-05-07T18:43:58.721Z,9.56
2017-05-07T18:46:26.030Z,9.48
2017-05-07T18:48:53.404Z,9.28
2017-05-07T18:51:20.726Z,11.00
2017-05-07T18:53:48.054Z,9.78
2017-05-07T18:56:16.096Z,10.44
2017-05-07T18:58:43.377Z,10.08
2017-05-07T19:01:11.421Z,10.78
2017-05-07T19:03:39.439Z,15.40
2017-05-07T19:06:07.508Z,16.64
2017-05-07T19:08:35.548Z,15.94
2017-05-07T19:11:02.864Z,19.32
2017-05-07T19:13:30.163Z,16.26
2017-05-07T19:15:57.541Z,15.44
2017-05-07T19:18:24.889Z,13.80
2017-05-07T19:20:52.235Z,14.90
2017-05-07T19:23:19.563Z,13.64
2017-05-07T19:25:46.909Z,15.34
2017-05-07T19:28:14.944Z,18.56
2017-05-07T19:30:42.238Z,14.92
2017-05-07T19:33:10.302Z,13.88
2017-05-07T19:35:38.512Z,17.70
2017-05-07T19:38:05.886Z,23.08
2017-05-07T19:40:33.180Z,14.16
2017-05-07T19:43:00.590Z,14.96
2017-05-07T19:45:28.080Z,12.76
2017-05-07T19:47:55.367Z,23.20
2017-05-07T19:50:22.728Z,16.00
2017-05-07T19:52:50.103Z,15.32
2017-05-07T19:55:18.195Z,21.50
2017-05-07T19:57:46.303Z,25.70
2017-05-07T20:00:13.687Z,15.86
2017-05-07T20:02:41.022Z,16.50
2017-05-07T20:05:08.368Z,30.94
2017-05-07T20:07:35.662Z,15.32
2017-05-07T20:10:03.060Z,22.44
2017-05-07T20:12:31.232Z,20.80
2017-05-07T20:14:58.677Z,38.52
2017-05-07T20:17:26.231Z,25.58
2017-05-07T20:19:54.041Z,21.10
2017-05-07T20:22:21.412Z,42.24
2017-05-07T20:24:48.797Z,23.28
2017-05-07T20:27:16.154Z,15.58
2017-05-07T20:29:43.497Z,12.48
2017-05-07T20:32:10.814Z,11.86
2017-05-07T20:34:38.213Z,10.48
2017-05-07T20:37:06.360Z,14.56
2017-05-07T20:39:33.704Z,11.98
2017-05-07T20:42:01.126Z,10.04
2017-05-07T20:44:28.625Z,11.12
2017-05-07T20:46:55.904Z,7.36
2017-05-07T20:49:24.079Z,12.22
2017-05-07T20:51:51.469Z,12.06
2017-05-07T20:54:19.539Z,9.90
2017-05-07T20:56:47.617Z,9.28
2017-05-07T20:59:15.690Z,9.30
2017-05-07T21:01:43.022Z,8.86
2017-05-07T21:04:10.370Z,9.84
2017-05-07T21:06:37.722Z,8.10
2017-05-07T21:09:05.021Z,10.22
2017-05-07T21:11:32.453Z,12.52
2017-05-07T21:13:59.777Z,8.78
2017-05-07T21:16:27.245Z,10.80
2017-05-07T21:18:54.549Z,9.56
2017-05-07T21:21:21.845Z,9.74
2017-05-07T21:23:49.163Z,11.20
2017-05-07T21:26:16.511Z,11.02
2017-05-07T21:28:43.877Z,10.54
2017-05-07T21:31:11.204Z,12.20
2017-05-07T21:33:38.592Z,12.16
2017-05-07T21:36:05.901Z,11.38
2017-05-07T21:38:34.184Z,13.64
2017-05-07T21:41:01.504Z,11.52
2017-05-07T21:43:28.959Z,18.36
2017-05-07T21:45:56.264Z,10.22
2017-05-07T21:48:23.612Z,11.94
2017-05-07T21:50:50.147Z,10.30
2017-05-07T21:53:18.211Z,10.16
2017-05-07T21:55:45.627Z,10.82
2017-05-07T21:58:12.926Z,12.82
2017-05-07T22:00:40.345Z,11.14
2017-05-07T22:03:07.680Z,11.62
2017-05-07T22:05:35.804Z,10.70
2017-05-07T22:08:03.090Z,13.44
2017-05-07T22:10:30.474Z,9.42
2017-05-07T22:12:58.560Z,9.18
2017-05-07T22:15:25.867Z,6.44
2017-05-07T22:17:53.725Z,7.20
2017-05-07T22:20:21.596Z,7.94
2017-05-07T22:22:48.995Z,5.68
2017-05-07T22:25:17.036Z,6.90
2017-05-07T22:27:44.333Z,7.04
2017-05-07T22:30:11.792Z,7.12
2017-05-07T22:32:39.163Z,6.00
2017-05-07T22:35:07.206Z,5.94
2017-05-07T22:37:34.665Z,6.64
2017-05-07T22:40:02.022Z,7.28
2017-05-07T22:42:29.379Z,6.92
2017-05-07T22:44:56.700Z,7.36
2017-05-07T22:47:24.236Z,11.58
2017-05-07T22:49:51.565Z,8.88
2017-05-07T22:52:18.950Z,7.92
2017-05-07T22:54:46.285Z,10.48
2017-05-07T22:57:13.687Z,8.84
2017-05-07T22:59:41.710Z,8.32
2017-05-07T23:02:08.997Z,8.52
2017-05-07T23:04:36.337Z,7.84
2017-05-07T23:07:03.624Z,7.70
2017-05-07T23:09:31.004Z,6.88
2017-05-07T23:11:59.098Z,8.36
2017-05-07T23:14:26.412Z,7.28
2017-05-07T23:16:53.683Z,8.34
2017-05-07T23:19:21.020Z,6.96
2017-05-07T23:21:48.391Z,7.34
2017-05-07T23:24:15.659Z,7.02
2017-05-07T23:26:43.088Z,7.34
2017-05-07T23:29:10.436Z,6.96
2017-05-07T23:31:37.744Z,8.52
2017-05-07T23:34:04.972Z,7.10
2017-05-07T23:36:32.276Z,9.60
2017-05-07T23:39:00.378Z,7.66
2017-05-07T23:41:27.672Z,8.86
2017-05-07T23:43:55.045Z,8.34
2017-05-07T23:46:22.364Z,9.46
2017-05-07T23:48:49.636Z,8.82
2017-05-07T23:51:16.988Z,9.44
2017-05-07T23:53:44.259Z,10.66
2017-05-07T23:56:11.539Z,10.42
2017-05-07T23:58:38.791Z,10.98
